Decoded Metar for NCRG (AVARUA in COOK ISLANDS) (IATA:RAR) | Meteo·Mobile Aviation Weather
aviador You're here:

NCRG Decoded Metar

AVARUA in COOK ISLANDS
Report Time2018-08-21 12:00:00
UTC Time2018-08-21 12:12:11
Flight Rules vfr VFR
Wind140° at 07 kt
W.Decomp.*RWY 08: 4.9 kt HW 5.0 kt RCW
W.Rank140° ranks 6
Current wind is above 140° avg. (6.5)
Visibility9999 m
Phenomena:N/A
Clouds:Scattered 023 Hf
Expected CloudBase > 2,400 ft AGL from Temp-Dew spread
CeilingNone
Temp20°C (ISA +5)
Dew Point14°C (69% RH)
AAT18.8°C
QNH1018 hPa
Density Alt659 ft
Elevation23 ft
Report Wrong Elevation
Raw Report
NCRG 211200Z 14007KT 9999 SCT023 20/14 Q1018=

Extra information for NCRG:More info

Metar Taf Metar & Taf Last 4 Metars F.Rules Stats Wind Profile Meteogram Temp Stats Airport Information Weather charts Add Link Nearby VenuesMetar ALERT Operation Metar Decoded Social comments